Time;durP1;ratioP1;P1;durP2;ratioP2;P2;SDS_P1;SDS_P2;PMS_P1;PMS_P2;Temp;Humidity;BMP_temperature;BMP_pressure;BME280_temperature;BME280_humidity;BME280_pressure;Samples;Min_cycle;Max_cycle;Signal;HPM_P1;HPM_P2
2023/12/29 00:00:19;;;;;;;7.30;6.20;;;;;;;;;;5026626;28;20251;-65
2023/12/29 00:02:47;;;;;;;7.03;6.00;;;;;;;;;;5039665;28;20596;-70
2023/12/29 00:05:14;;;;;;;7.03;5.87;;;;;;;;;;5046204;28;20210;-69
2023/12/29 00:07:42;;;;;;;7.63;6.30;;;;;;;;;;5031103;28;20579;-65
2023/12/29 00:10:09;;;;;;;7.53;6.00;;;;;;;;;;5042152;28;20643;-69
2023/12/29 00:12:37;;;;;;;6.47;5.77;;;;;;;;;;5045099;28;20202;-66
2023/12/29 00:15:05;;;;;;;6.80;6.00;;;;;;;;;;5048110;28;20202;-64
2023/12/29 00:17:36;;;;;;;6.37;5.77;;;;;;;;;;5044839;28;20226;-67
2023/12/29 00:20:05;;;;;;;6.53;5.83;;;;;;;;;;5046183;28;20209;-66
2023/12/29 00:22:32;;;;;;;8.40;5.97;;;;;;;;;;5043866;28;20213;-64
2023/12/29 00:25:00;;;;;;;6.83;6.13;;;;;;;;;;5045024;28;20210;-65
2023/12/29 00:27:27;;;;;;;6.93;6.07;;;;;;;;;;5043976;28;20309;-66
2023/12/29 00:29:55;;;;;;;7.97;6.50;;;;;;;;;;5043605;28;20202;-68
2023/12/29 00:32:22;;;;;;;6.63;6.00;;;;;;;;;;5040588;28;20246;-66
2023/12/29 00:34:50;;;;;;;8.73;6.50;;;;;;;;;;5027526;28;20203;-66
2023/12/29 00:37:17;;;;;;;9.70;7.27;;;;;;;;;;5044742;28;20229;-66
2023/12/29 00:39:45;;;;;;;7.50;6.80;;;;;;;;;;5042720;28;20210;-68
2023/12/29 00:42:12;;;;;;;8.47;6.70;;;;;;;;;;5025858;28;20202;-65
2023/12/29 00:44:41;;;;;;;9.50;7.40;;;;;;;;;;5048470;28;20202;-65
2023/12/29 00:47:09;;;;;;;7.93;7.00;;;;;;;;;;5049303;28;20238;-65
2023/12/29 00:49:39;;;;;;;9.53;7.63;;;;;;;;;;5047244;28;20199;-66
2023/12/29 00:52:07;;;;;;;10.53;8.27;;;;;;;;;;5045146;28;20308;-68
2023/12/29 00:54:35;;;;;;;10.30;8.17;;;;;;;;;;5043001;28;20562;-68
2023/12/29 00:57:02;;;;;;;9.73;8.47;;;;;;;;;;5042150;28;20227;-68
2023/12/29 00:59:30;;;;;;;10.27;8.30;;;;;;;;;;5048343;28;20260;-67
2023/12/29 01:01:57;;;;;;;12.40;9.40;;;;;;;;;;5044995;28;20209;-65
2023/12/29 01:04:24;;;;;;;10.67;8.80;;;;;;;;;;5047195;28;20607;-67
2023/12/29 01:06:53;;;;;;;10.43;8.63;;;;;;;;;;5047032;28;20226;-67
2023/12/29 01:09:21;;;;;;;12.03;9.37;;;;;;;;;;5045134;28;20248;-66
2023/12/29 01:11:48;;;;;;;12.03;9.63;;;;;;;;;;5042953;28;20199;-67
2023/12/29 01:14:16;;;;;;;12.47;9.63;;;;;;;;;;5043436;28;20301;-66
2023/12/29 01:16:43;;;;;;;11.40;9.47;;;;;;;;;;5043220;28;20300;-66
2023/12/29 01:19:10;;;;;;;11.77;9.00;;;;;;;;;;5044594;28;20202;-66
2023/12/29 01:21:38;;;;;;;12.47;9.70;;;;;;;;;;5026996;28;20288;-66
2023/12/29 01:24:07;;;;;;;13.80;9.57;;;;;;;;;;5041471;28;20931;-68
2023/12/29 01:26:38;;;;;;;10.83;9.43;;;;;;;;;;5036560;28;20234;-66
2023/12/29 01:29:06;;;;;;;13.17;10.43;;;;;;;;;;5041571;28;20214;-66
2023/12/29 01:31:33;;;;;;;14.77;10.27;;;;;;;;;;5039701;28;20194;-65
2023/12/29 01:34:01;;;;;;;12.97;9.90;;;;;;;;;;5041232;28;20286;-66
2023/12/29 01:36:28;;;;;;;12.07;10.17;;;;;;;;;;5043409;28;20250;-66
2023/12/29 01:38:56;;;;;;;12.83;10.17;;;;;;;;;;5041924;28;20202;-65
2023/12/29 01:41:23;;;;;;;14.00;10.70;;;;;;;;;;5043070;28;20194;-66
2023/12/29 01:44:14;;;;;;;13.83;10.63;;;;;;;;;;5043290;28;20202;-65
2023/12/29 01:46:41;;;;;;;12.97;10.37;;;;;;;;;;5031739;28;20361;-63
2023/12/29 01:49:09;;;;;;;14.90;10.40;;;;;;;;;;5045539;28;20203;-63
2023/12/29 01:51:36;;;;;;;11.70;9.87;;;;;;;;;;5047193;28;20281;-65
2023/12/29 01:54:04;;;;;;;11.90;9.80;;;;;;;;;;5013440;28;20674;-65
2023/12/29 01:56:31;;;;;;;14.13;9.30;;;;;;;;;;5038852;28;20221;-67
2023/12/29 01:58:59;;;;;;;13.53;10.43;;;;;;;;;;5050174;28;20201;-66
2023/12/29 02:01:39;;;;;;;13.77;9.10;;;;;;;;;;5043349;28;20655;-65
2023/12/29 02:04:10;;;;;;;13.37;9.47;;;;;;;;;;5038903;28;20202;-65
2023/12/29 02:06:38;;;;;;;11.70;9.33;;;;;;;;;;5043943;28;20560;-65
2023/12/29 02:09:06;;;;;;;12.10;9.20;;;;;;;;;;5048247;28;20214;-65
2023/12/29 02:11:33;;;;;;;13.73;9.67;;;;;;;;;;5028899;28;20293;-66
2023/12/29 02:14:01;;;;;;;12.30;9.43;;;;;;;;;;5042944;28;20285;-65
2023/12/29 02:16:34;;;;;;;10.73;9.17;;;;;;;;;;5031217;28;20219;-64
2023/12/29 02:19:04;;;;;;;13.10;8.20;;;;;;;;;;5045988;28;20206;-66
2023/12/29 02:21:32;;;;;;;9.80;7.97;;;;;;;;;;5045551;28;20369;-68
2023/12/29 02:23:59;;;;;;;11.27;7.13;;;;;;;;;;5044644;28;20202;-66
2023/12/29 02:26:30;;;;;;;6.80;6.10;;;;;;;;;;5047310;28;20719;-65
2023/12/29 02:29:00;;;;;;;7.80;6.50;;;;;;;;;;5039474;28;20202;-65
2023/12/29 02:31:30;;;;;;;7.47;6.13;;;;;;;;;;5040481;28;20202;-65
2023/12/29 02:33:58;;;;;;;6.50;5.80;;;;;;;;;;5047009;28;20341;-68
2023/12/29 02:36:25;;;;;;;6.90;5.80;;;;;;;;;;5029949;28;20222;-65
2023/12/29 02:38:53;;;;;;;7.13;5.80;;;;;;;;;;5055749;28;20203;-68
2023/12/29 02:41:21;;;;;;;5.43;4.93;;;;;;;;;;5073915;28;20273;-69
2023/12/29 02:43:48;;;;;;;7.63;5.23;;;;;;;;;;5048129;28;20293;-65
2023/12/29 02:46:15;;;;;;;6.93;5.23;;;;;;;;;;5048929;28;20217;-65
2023/12/29 02:48:42;;;;;;;6.03;5.13;;;;;;;;;;5044002;28;20234;-66
2023/12/29 02:51:10;;;;;;;6.23;5.10;;;;;;;;;;5047789;28;20200;-67
2023/12/29 02:53:37;;;;;;;7.00;4.77;;;;;;;;;;5047775;28;20208;-67
2023/12/29 02:56:05;;;;;;;4.97;4.33;;;;;;;;;;5048718;28;20207;-66
2023/12/29 02:58:32;;;;;;;5.63;4.50;;;;;;;;;;5042968;28;20215;-67
2023/12/29 03:00:59;;;;;;;4.67;4.20;;;;;;;;;;5043691;28;20256;-68
2023/12/29 03:03:27;;;;;;;5.87;4.53;;;;;;;;;;5045028;28;20755;-67
2023/12/29 03:05:54;;;;;;;5.10;4.40;;;;;;;;;;5034772;28;20211;-65
2023/12/29 03:08:22;;;;;;;5.30;4.80;;;;;;;;;;5048864;28;20625;-67
2023/12/29 03:10:49;;;;;;;6.30;4.47;;;;;;;;;;5049645;28;20798;-67
2023/12/29 03:13:16;;;;;;;5.40;4.60;;;;;;;;;;5046343;28;20257;-67
2023/12/29 03:15:44;;;;;;;5.00;4.37;;;;;;;;;;5046157;28;20195;-66
2023/12/29 03:18:12;;;;;;;5.43;4.20;;;;;;;;;;5046078;28;20298;-65
2023/12/29 03:20:39;;;;;;;4.77;3.33;;;;;;;;;;5047302;28;20662;-65
2023/12/29 03:23:07;;;;;;;4.83;4.20;;;;;;;;;;5050470;28;20651;-65
2023/12/29 03:25:34;;;;;;;4.83;3.57;;;;;;;;;;5047841;28;20289;-67
2023/12/29 03:28:01;;;;;;;4.20;3.50;;;;;;;;;;5051931;28;20370;-67
2023/12/29 03:30:29;;;;;;;4.23;3.83;;;;;;;;;;5043045;28;20197;-68
2023/12/29 03:32:57;;;;;;;3.53;3.23;;;;;;;;;;5046214;28;20210;-65
2023/12/29 03:35:24;;;;;;;3.43;3.13;;;;;;;;;;5047087;28;20206;-66
2023/12/29 03:37:51;;;;;;;4.80;3.40;;;;;;;;;;5041685;28;20283;-66
2023/12/29 03:40:19;;;;;;;3.47;3.17;;;;;;;;;;5048310;28;20628;-66
2023/12/29 03:42:46;;;;;;;3.70;2.97;;;;;;;;;;5034586;28;20208;-66
2023/12/29 03:45:13;;;;;;;3.37;3.03;;;;;;;;;;5048708;28;20214;-66
2023/12/29 03:47:41;;;;;;;3.67;3.20;;;;;;;;;;5047907;28;20218;-67
2023/12/29 03:50:08;;;;;;;4.27;2.90;;;;;;;;;;5046423;28;20571;-66
2023/12/29 03:52:36;;;;;;;2.97;2.77;;;;;;;;;;5044514;28;20542;-67
2023/12/29 03:55:04;;;;;;;3.00;2.70;;;;;;;;;;5049525;28;20202;-67
2023/12/29 03:57:31;;;;;;;3.37;2.90;;;;;;;;;;5031295;28;20226;-66
2023/12/29 03:59:58;;;;;;;2.90;2.70;;;;;;;;;;5054194;28;20771;-66
2023/12/29 04:02:26;;;;;;;4.33;3.00;;;;;;;;;;5047990;28;20739;-65
2023/12/29 04:04:54;;;;;;;2.80;2.60;;;;;;;;;;5050753;28;20205;-66
2023/12/29 04:07:21;;;;;;;3.20;2.90;;;;;;;;;;5045663;28;20229;-64
2023/12/29 04:09:48;;;;;;;2.90;2.70;;;;;;;;;;5048339;28;20686;-68
2023/12/29 04:12:16;;;;;;;3.30;3.00;;;;;;;;;;5049776;28;20649;-67
2023/12/29 04:14:44;;;;;;;3.93;3.10;;;;;;;;;;5051263;28;20264;-65
2023/12/29 04:17:13;;;;;;;3.70;2.90;;;;;;;;;;5046239;28;20692;-68
2023/12/29 04:19:41;;;;;;;3.80;3.23;;;;;;;;;;5063864;28;20605;-65
2023/12/29 04:22:09;;;;;;;3.33;3.03;;;;;;;;;;5045955;28;20210;-67
2023/12/29 04:24:39;;;;;;;3.83;2.80;;;;;;;;;;5048362;28;20202;-67
2023/12/29 04:27:07;;;;;;;3.53;3.03;;;;;;;;;;5046794;28;20317;-65
2023/12/29 04:29:34;;;;;;;3.10;2.90;;;;;;;;;;5051878;28;20213;-64
2023/12/29 04:32:02;;;;;;;3.23;2.93;;;;;;;;;;5030293;28;20294;-66
2023/12/29 04:34:30;;;;;;;3.30;3.00;;;;;;;;;;5046093;28;20209;-65
2023/12/29 04:36:57;;;;;;;3.27;2.90;;;;;;;;;;5046436;28;20250;-65
2023/12/29 04:39:24;;;;;;;3.47;3.17;;;;;;;;;;5048358;28;20229;-67
2023/12/29 04:41:52;;;;;;;3.50;3.20;;;;;;;;;;5026152;28;20209;-64
2023/12/29 04:44:19;;;;;;;3.17;2.97;;;;;;;;;;5043564;28;20206;-65
2023/12/29 04:46:47;;;;;;;2.97;2.70;;;;;;;;;;5045992;28;20309;-66
2023/12/29 04:49:14;;;;;;;3.13;2.83;;;;;;;;;;5044526;28;20225;-67
2023/12/29 04:51:42;;;;;;;3.30;3.00;;;;;;;;;;5042394;28;20209;-64
2023/12/29 04:54:09;;;;;;;3.33;2.60;;;;;;;;;;5044849;28;20210;-66
2023/12/29 04:56:37;;;;;;;3.00;2.70;;;;;;;;;;5026927;28;20222;-67
2023/12/29 04:59:05;;;;;;;3.77;3.23;;;;;;;;;;5045937;28;20293;-66
2023/12/29 05:01:32;;;;;;;3.27;2.97;;;;;;;;;;5045794;28;20706;-67
2023/12/29 05:04:00;;;;;;;3.33;2.93;;;;;;;;;;5028329;28;20217;-67
2023/12/29 05:06:28;;;;;;;4.23;3.07;;;;;;;;;;5046227;28;20230;-67
2023/12/29 05:08:55;;;;;;;3.13;2.90;;;;;;;;;;5028614;28;20675;-65
2023/12/29 05:11:22;;;;;;;3.00;2.80;;;;;;;;;;5044704;28;20202;-66
2023/12/29 05:13:49;;;;;;;3.33;3.03;;;;;;;;;;5043685;28;20216;-66
2023/12/29 05:16:17;;;;;;;3.83;3.00;;;;;;;;;;5044394;28;20751;-65
2023/12/29 05:18:44;;;;;;;3.77;3.20;;;;;;;;;;5051627;28;20656;-66
2023/12/29 05:21:18;;;;;;;3.90;3.60;;;;;;;;;;5048875;28;20589;-64
2023/12/29 05:23:47;;;;;;;4.73;4.20;;;;;;;;;;5047392;28;20672;-67
2023/12/29 05:26:15;;;;;;;6.70;4.20;;;;;;;;;;5043263;28;20289;-67
2023/12/29 05:28:43;;;;;;;4.83;4.13;;;;;;;;;;5044328;28;20223;-67
2023/12/29 05:31:10;;;;;;;4.73;4.27;;;;;;;;;;5045019;28;20620;-65
2023/12/29 05:33:37;;;;;;;4.63;4.10;;;;;;;;;;5044452;28;20217;-67
2023/12/29 05:36:09;;;;;;;5.80;4.10;;;;;;;;;;5045637;28;20247;-67
2023/12/29 05:38:37;;;;;;;5.50;4.27;;;;;;;;;;5040926;28;20221;-64
2023/12/29 05:41:05;;;;;;;6.37;4.90;;;;;;;;;;5045416;28;22372;-67
2023/12/29 05:43:33;;;;;;;7.20;5.70;;;;;;;;;;5044682;28;20260;-65
2023/12/29 05:46:03;;;;;;;7.83;7.00;;;;;;;;;;5044647;28;20289;-64
2023/12/29 05:48:31;;;;;;;8.50;6.50;;;;;;;;;;5048904;28;20234;-67
2023/12/29 05:50:58;;;;;;;7.37;5.63;;;;;;;;;;5040844;28;20272;-66
2023/12/29 05:53:26;;;;;;;5.83;5.20;;;;;;;;;;5027474;28;20206;-67
2023/12/29 05:55:53;;;;;;;5.93;5.33;;;;;;;;;;5027473;28;20203;-65
2023/12/29 05:58:20;;;;;;;6.23;5.60;;;;;;;;;;5046180;28;20796;-64
2023/12/29 06:00:48;;;;;;;6.00;5.40;;;;;;;;;;5046197;28;20667;-66
2023/12/29 06:03:15;;;;;;;6.03;5.43;;;;;;;;;;5028512;28;20312;-65
2023/12/29 06:05:44;;;;;;;8.57;5.57;;;;;;;;;;5049185;28;20232;-67
2023/12/29 06:08:13;;;;;;;6.23;5.57;;;;;;;;;;5048860;28;20778;-65
2023/12/29 06:10:41;;;;;;;5.57;5.00;;;;;;;;;;5050603;28;20205;-65
2023/12/29 06:13:08;;;;;;;6.20;5.60;;;;;;;;;;5048357;28;20205;-68
2023/12/29 06:15:36;;;;;;;5.87;5.23;;;;;;;;;;5046845;28;20198;-66
2023/12/29 06:18:04;;;;;;;6.10;5.00;;;;;;;;;;5050019;28;20225;-66
2023/12/29 06:20:31;;;;;;;6.10;5.37;;;;;;;;;;5049426;28;20672;-66
2023/12/29 06:22:59;;;;;;;6.23;5.60;;;;;;;;;;5048880;28;20605;-66
2023/12/29 06:25:27;;;;;;;7.43;5.20;;;;;;;;;;5048876;28;20206;-65
2023/12/29 06:27:55;;;;;;;6.60;5.37;;;;;;;;;;5044999;28;20280;-65
2023/12/29 06:30:23;;;;;;;5.30;4.80;;;;;;;;;;5052971;28;20664;-65
2023/12/29 06:32:51;;;;;;;5.00;4.60;;;;;;;;;;5032291;28;20213;-65
2023/12/29 06:35:19;;;;;;;6.27;4.97;;;;;;;;;;5048388;28;20206;-66
2023/12/29 06:37:59;;;;;;;6.33;5.37;;;;;;;;;;5049535;28;20386;-70
2023/12/29 06:40:34;;;;;;;5.77;5.07;;;;;;;;;;5030066;28;20198;-63
2023/12/29 06:43:05;;;;;;;5.63;4.87;;;;;;;;;;5030162;28;21193;-66
2023/12/29 06:45:33;;;;;;;6.20;5.50;;;;;;;;;;5048301;28;20613;-65
2023/12/29 06:48:00;;;;;;;5.70;5.20;;;;;;;;;;5048406;28;20233;-67
2023/12/29 06:50:28;;;;;;;8.10;6.33;;;;;;;;;;5028026;28;20299;-64
2023/12/29 06:52:57;;;;;;;6.20;5.60;;;;;;;;;;5052632;28;20207;-66
2023/12/29 06:55:25;;;;;;;6.57;5.87;;;;;;;;;;5065145;28;20225;-66
2023/12/29 06:57:53;;;;;;;7.97;6.07;;;;;;;;;;5060179;28;20242;-65
2023/12/29 07:00:20;;;;;;;6.97;6.30;;;;;;;;;;5033599;28;20727;-66
2023/12/29 07:02:48;;;;;;;7.70;6.40;;;;;;;;;;5050587;28;20194;-64
2023/12/29 07:05:16;;;;;;;9.40;7.67;;;;;;;;;;5044191;28;20202;-66
2023/12/29 07:07:44;;;;;;;7.90;7.07;;;;;;;;;;5033706;28;20221;-66
2023/12/29 07:10:15;;;;;;;8.67;7.03;;;;;;;;;;5044875;28;20202;-65
2023/12/29 07:12:43;;;;;;;12.23;6.83;;;;;;;;;;5046547;28;20225;-66
2023/12/29 07:15:13;;;;;;;8.83;6.43;;;;;;;;;;5028179;28;20292;-67
2023/12/29 07:17:41;;;;;;;7.57;6.13;;;;;;;;;;5041141;28;20802;-67
2023/12/29 07:20:09;;;;;;;8.13;6.83;;;;;;;;;;5048269;28;21113;-65
2023/12/29 07:22:36;;;;;;;9.47;7.40;;;;;;;;;;5049949;28;20210;-65
2023/12/29 07:25:04;;;;;;;36.20;23.90;;;;;;;;;;5051924;28;20205;-65
2023/12/29 07:27:31;;;;;;;27.63;19.20;;;;;;;;;;5048275;28;20723;-65
2023/12/29 07:29:59;;;;;;;17.67;12.07;;;;;;;;;;5046663;28;20222;-67
2023/12/29 07:32:26;;;;;;;30.63;19.50;;;;;;;;;;5049452;28;20299;-64
2023/12/29 07:34:54;;;;;;;9.27;6.73;;;;;;;;;;5045181;28;20627;-66
2023/12/29 07:37:21;;;;;;;9.00;7.13;;;;;;;;;;5043304;28;20616;-64
2023/12/29 07:39:49;;;;;;;10.47;7.73;;;;;;;;;;5046987;28;20202;-64
2023/12/29 07:42:17;;;;;;;16.90;11.37;;;;;;;;;;5031286;28;20299;-64
2023/12/29 07:44:44;;;;;;;16.90;12.27;;;;;;;;;;5028820;28;20286;-66
2023/12/29 07:47:12;;;;;;;15.17;11.60;;;;;;;;;;5045225;28;20237;-67
2023/12/29 07:49:42;;;;;;;51.50;28.47;;;;;;;;;;5047061;28;20214;-64
2023/12/29 07:52:09;;;;;;;34.27;20.00;;;;;;;;;;5046712;28;20203;-64
2023/12/29 07:54:37;;;;;;;10.63;7.97;;;;;;;;;;5048080;28;20198;-65
2023/12/29 07:57:04;;;;;;;18.40;13.77;;;;;;;;;;5027508;28;20254;-66
2023/12/29 07:59:32;;;;;;;13.03;9.63;;;;;;;;;;5029104;28;20209;-64
2023/12/29 08:02:00;;;;;;;12.97;9.63;;;;;;;;;;5042082;28;20199;-65
2023/12/29 08:04:27;;;;;;;27.80;18.77;;;;;;;;;;5040680;28;20206;-64
2023/12/29 08:06:55;;;;;;;11.37;8.83;;;;;;;;;;5043967;28;20251;-64
2023/12/29 08:09:23;;;;;;;14.83;10.33;;;;;;;;;;5025104;28;20233;-66
2023/12/29 08:11:50;;;;;;;9.87;8.40;;;;;;;;;;5046771;28;20795;-67
2023/12/29 08:14:18;;;;;;;11.17;9.07;;;;;;;;;;5046309;28;20653;-66
2023/12/29 08:16:46;;;;;;;11.03;9.00;;;;;;;;;;5047129;28;20218;-68
2023/12/29 08:19:15;;;;;;;13.57;10.77;;;;;;;;;;5047226;28;20732;-65
2023/12/29 08:21:42;;;;;;;16.30;11.23;;;;;;;;;;5042533;28;20281;-67
2023/12/29 08:24:10;;;;;;;16.07;11.80;;;;;;;;;;5045965;28;20214;-67
2023/12/29 08:26:47;;;;;;;15.87;12.63;;;;;;;;;;5030447;28;20245;-65
2023/12/29 08:29:15;;;;;;;10.63;9.43;;;;;;;;;;5044826;28;20272;-66
2023/12/29 08:31:43;;;;;;;10.83;8.90;;;;;;;;;;5045745;28;20208;-66
2023/12/29 08:34:12;;;;;;;13.93;10.67;;;;;;;;;;5051796;28;20703;-68
2023/12/29 08:36:40;;;;;;;10.60;8.00;;;;;;;;;;5043316;28;20226;-65
2023/12/29 08:39:09;;;;;;;8.67;7.77;;;;;;;;;;5042908;28;20214;-63
2023/12/29 08:41:37;;;;;;;10.23;9.07;;;;;;;;;;5045387;28;20222;-64
2023/12/29 08:44:04;;;;;;;11.70;9.80;;;;;;;;;;5036764;28;20209;-66
2023/12/29 08:46:32;;;;;;;10.03;8.47;;;;;;;;;;5027328;28;20272;-65
2023/12/29 08:49:00;;;;;;;11.30;9.20;;;;;;;;;;5042996;28;20245;-66
2023/12/29 08:51:28;;;;;;;10.87;9.03;;;;;;;;;;5042623;28;20198;-67
2023/12/29 08:53:56;;;;;;;10.13;8.63;;;;;;;;;;5026325;28;20281;-67
2023/12/29 08:56:23;;;;;;;9.87;8.10;;;;;;;;;;5042742;28;20206;-68
2023/12/29 08:58:55;;;;;;;9.80;8.73;;;;;;;;;;5021893;28;20206;-65
2023/12/29 09:01:22;;;;;;;8.57;7.43;;;;;;;;;;5047649;28;20218;-67
2023/12/29 09:03:50;;;;;;;9.20;7.97;;;;;;;;;;5043878;28;20755;-66
2023/12/29 09:06:18;;;;;;;8.37;7.47;;;;;;;;;;5047680;28;20293;-65
2023/12/29 09:08:46;;;;;;;8.43;7.43;;;;;;;;;;5040815;28;20233;-67
2023/12/29 09:11:13;;;;;;;8.33;7.00;;;;;;;;;;5041988;28;20210;-65
2023/12/29 09:13:43;;;;;;;8.67;7.50;;;;;;;;;;5036791;28;20207;-64
2023/12/29 09:16:11;;;;;;;8.43;7.50;;;;;;;;;;5038040;28;20211;-65
2023/12/29 09:18:38;;;;;;;7.80;7.00;;;;;;;;;;5044042;28;20256;-66
2023/12/29 09:21:06;;;;;;;10.33;7.07;;;;;;;;;;5038442;28;20260;-63
2023/12/29 09:23:33;;;;;;;9.40;7.47;;;;;;;;;;5037581;28;20656;-66
2023/12/29 09:26:01;;;;;;;8.10;7.30;;;;;;;;;;5039811;28;20298;-66
2023/12/29 09:28:28;;;;;;;9.80;7.53;;;;;;;;;;5032531;28;20293;-65
2023/12/29 09:30:56;;;;;;;8.70;6.90;;;;;;;;;;5033079;28;20209;-69
2023/12/29 09:33:24;;;;;;;7.73;6.93;;;;;;;;;;5038691;28;20198;-66
2023/12/29 09:35:52;;;;;;;7.90;6.87;;;;;;;;;;5013349;28;20306;-66
2023/12/29 09:38:19;;;;;;;7.97;6.90;;;;;;;;;;5036739;28;20234;-67
2023/12/29 09:40:49;;;;;;;7.23;6.40;;;;;;;;;;5033193;28;20213;-66
2023/12/29 09:43:16;;;;;;;6.87;6.03;;;;;;;;;;5018144;28;20217;-65
2023/12/29 09:45:49;;;;;;;7.17;6.03;;;;;;;;;;5035911;28;20565;-67
2023/12/29 09:48:19;;;;;;;5.80;5.30;;;;;;;;;;5037722;28;20285;-68
2023/12/29 09:50:47;;;;;;;6.97;6.27;;;;;;;;;;5051482;28;20194;-68
2023/12/29 09:53:15;;;;;;;5.83;5.33;;;;;;;;;;5045803;28;20652;-66
2023/12/29 09:55:42;;;;;;;6.40;5.80;;;;;;;;;;5032906;28;20941;-64
2023/12/29 09:58:10;;;;;;;6.47;5.87;;;;;;;;;;5037075;28;20253;-65
2023/12/29 10:00:40;;;;;;;5.93;5.33;;;;;;;;;;5029338;28;20301;-68
2023/12/29 10:03:09;;;;;;;7.20;6.50;;;;;;;;;;5032318;28;20305;-66
2023/12/29 10:05:36;;;;;;;7.83;6.67;;;;;;;;;;5030021;28;20214;-66
2023/12/29 10:08:05;;;;;;;7.07;6.10;;;;;;;;;;5016200;28;20238;-65
2023/12/29 10:10:34;;;;;;;7.43;6.73;;;;;;;;;;5028428;28;20234;-66
2023/12/29 10:13:02;;;;;;;8.80;7.57;;;;;;;;;;5025997;28;20203;-67
2023/12/29 10:15:51;;;;;;;7.83;7.00;;;;;;;;;;5035132;28;20206;-64
2023/12/29 10:18:23;;;;;;;6.93;6.23;;;;;;;;;;5034420;28;20222;-64
2023/12/29 10:21:07;;;;;;;7.13;6.43;;;;;;;;;;5041163;28;20292;-64
2023/12/29 10:23:45;;;;;;;7.17;6.47;;;;;;;;;;5037879;28;20201;-65
2023/12/29 10:26:13;;;;;;;7.33;6.50;;;;;;;;;;5001682;28;20213;-65
2023/12/29 10:28:41;;;;;;;6.40;5.80;;;;;;;;;;5029403;28;20222;-65
2023/12/29 10:31:16;;;;;;;6.37;5.77;;;;;;;;;;5038121;28;20244;-66
2023/12/29 10:33:44;;;;;;;6.50;5.60;;;;;;;;;;5036964;28;20268;-65
2023/12/29 10:36:11;;;;;;;5.70;5.17;;;;;;;;;;5040344;28;20206;-65
2023/12/29 10:38:42;;;;;;;5.70;5.17;;;;;;;;;;5051952;28;20203;-68
2023/12/29 10:41:16;;;;;;;5.20;4.70;;;;;;;;;;5040981;28;20211;-65
2023/12/29 10:43:54;;;;;;;5.77;5.27;;;;;;;;;;5021613;28;20215;-68
2023/12/29 10:46:25;;;;;;;6.10;5.20;;;;;;;;;;5036441;28;20245;-66
2023/12/29 10:48:53;;;;;;;5.43;4.93;;;;;;;;;;5034956;28;20207;-67
2023/12/29 10:51:29;;;;;;;6.20;5.60;;;;;;;;;;5036604;28;20214;-66
2023/12/29 10:54:00;;;;;;;6.20;5.57;;;;;;;;;;5033111;28;20202;-68
2023/12/29 10:56:28;;;;;;;6.90;5.30;;;;;;;;;;5039700;28;20218;-64
2023/12/29 10:59:03;;;;;;;11.30;7.90;;;;;;;;;;5039090;28;20211;-66
2023/12/29 11:01:34;;;;;;;14.80;9.57;;;;;;;;;;5038905;28;20566;-66
2023/12/29 11:04:05;;;;;;;44.47;28.17;;;;;;;;;;5043027;28;20214;-64
2023/12/29 11:06:47;;;;;;;6.87;6.17;;;;;;;;;;5027367;28;20312;-66
2023/12/29 11:09:15;;;;;;;8.40;7.40;;;;;;;;;;5036127;28;20222;-67
2023/12/29 11:11:44;;;;;;;7.60;6.90;;;;;;;;;;5035650;28;20199;-66
2023/12/29 11:14:12;;;;;;;8.40;7.60;;;;;;;;;;5041624;28;20214;-66
2023/12/29 11:16:40;;;;;;;7.60;6.43;;;;;;;;;;5037436;28;20924;-64
2023/12/29 11:19:09;;;;;;;7.83;6.93;;;;;;;;;;5036053;28;20326;-66
2023/12/29 11:21:38;;;;;;;7.40;6.60;;;;;;;;;;5036595;28;20201;-66
2023/12/29 11:24:06;;;;;;;7.40;6.70;;;;;;;;;;5044682;28;20254;-66
2023/12/29 11:26:33;;;;;;;8.10;7.10;;;;;;;;;;5041094;28;20324;-63
2023/12/29 11:29:04;;;;;;;8.17;7.37;;;;;;;;;;5047251;28;20297;-64
2023/12/29 11:31:32;;;;;;;7.97;7.00;;;;;;;;;;5041620;28;20233;-63
2023/12/29 11:34:07;;;;;;;8.10;7.30;;;;;;;;;;5045420;28;20208;-64
2023/12/29 11:36:38;;;;;;;7.80;7.00;;;;;;;;;;5042897;28;20213;-64
2023/12/29 11:39:12;;;;;;;8.27;7.47;;;;;;;;;;5040129;28;21273;-63
2023/12/29 11:41:43;;;;;;;8.27;7.37;;;;;;;;;;5040196;28;20875;-63
2023/12/29 11:44:14;;;;;;;9.47;7.50;;;;;;;;;;5045426;28;20214;-65
2023/12/29 11:46:44;;;;;;;8.20;7.13;;;;;;;;;;5045877;28;20313;-65
2023/12/29 11:49:12;;;;;;;7.77;6.90;;;;;;;;;;5035912;28;20582;-65
2023/12/29 11:51:41;;;;;;;6.97;6.27;;;;;;;;;;5039702;28;20203;-64
2023/12/29 11:54:08;;;;;;;9.00;6.63;;;;;;;;;;5043234;28;20205;-65
2023/12/29 11:56:36;;;;;;;6.70;5.73;;;;;;;;;;5021410;28;20272;-65
2023/12/29 11:59:23;;;;;;;8.90;7.00;;;;;;;;;;5039697;28;20201;-64
2023/12/29 12:01:54;;;;;;;6.90;6.30;;;;;;;;;;5043899;28;20203;-64
2023/12/29 12:04:41;;;;;;;6.60;5.90;;;;;;;;;;5041858;28;20198;-65
2023/12/29 12:07:23;;;;;;;7.00;5.83;;;;;;;;;;5048957;28;20571;-65
2023/12/29 12:09:52;;;;;;;6.87;5.97;;;;;;;;;;5045730;28;20229;-64
2023/12/29 12:12:42;;;;;;;7.73;6.20;;;;;;;;;;5027823;28;20227;-65
2023/12/29 12:15:31;;;;;;;7.70;5.80;;;;;;;;;;5044637;28;20206;-65
2023/12/29 12:17:59;;;;;;;6.03;5.43;;;;;;;;;;5047955;28;20230;-65
2023/12/29 12:20:30;;;;;;;6.03;5.40;;;;;;;;;;5043207;28;20210;-66
2023/12/29 12:22:58;;;;;;;5.97;5.37;;;;;;;;;;5033531;28;20211;-65
2023/12/29 12:25:28;;;;;;;7.17;5.70;;;;;;;;;;5035318;28;20233;-65
2023/12/29 12:27:59;;;;;;;7.20;5.93;;;;;;;;;;5039436;28;20222;-66
2023/12/29 12:30:27;;;;;;;7.57;5.53;;;;;;;;;;5039436;28;20352;-65
2023/12/29 12:33:01;;;;;;;5.07;4.67;;;;;;;;;;5041148;28;20275;-65
2023/12/29 12:35:29;;;;;;;6.27;5.53;;;;;;;;;;5037515;28;20209;-64
2023/12/29 12:38:09;;;;;;;6.00;5.40;;;;;;;;;;5035036;28;20653;-65
2023/12/29 12:40:38;;;;;;;5.70;5.17;;;;;;;;;;5037507;28;20214;-65
2023/12/29 12:43:08;;;;;;;5.60;5.10;;;;;;;;;;5040892;28;20210;-62
2023/12/29 12:45:42;;;;;;;5.57;4.70;;;;;;;;;;5048969;28;20209;-63
2023/12/29 12:48:23;;;;;;;5.20;4.70;;;;;;;;;;5020626;28;20245;-66
2023/12/29 12:50:51;;;;;;;6.20;5.60;;;;;;;;;;5018249;28;20228;-64
2023/12/29 12:53:22;;;;;;;6.33;5.67;;;;;;;;;;5032158;28;20290;-65
2023/12/29 12:55:50;;;;;;;7.53;5.23;;;;;;;;;;5029857;28;20436;-65
2023/12/29 12:58:20;;;;;;;5.27;4.77;;;;;;;;;;5014806;28;20221;-65
2023/12/29 13:00:48;;;;;;;5.13;4.73;;;;;;;;;;5032835;28;20674;-64
2023/12/29 13:03:20;;;;;;;5.57;5.07;;;;;;;;;;5044193;28;20210;-65
2023/12/29 13:05:48;;;;;;;5.33;4.83;;;;;;;;;;5038439;28;20663;-64
2023/12/29 13:08:16;;;;;;;5.13;4.67;;;;;;;;;;5039557;28;20695;-65
2023/12/29 13:11:00;;;;;;;6.13;5.17;;;;;;;;;;5034646;28;20225;-67
2023/12/29 13:13:38;;;;;;;6.33;4.73;;;;;;;;;;5021110;28;20688;-63
2023/12/29 13:16:06;;;;;;;5.53;5.03;;;;;;;;;;5033870;28;20217;-66
2023/12/29 13:18:33;;;;;;;6.10;4.83;;;;;;;;;;5041097;28;20204;-66
2023/12/29 13:21:03;;;;;;;4.90;4.40;;;;;;;;;;5034702;28;20293;-63
2023/12/29 13:23:31;;;;;;;5.30;4.80;;;;;;;;;;5038137;28;20748;-66
2023/12/29 13:26:00;;;;;;;4.53;4.20;;;;;;;;;;5016793;28;20263;-64
2023/12/29 13:28:28;;;;;;;5.00;4.60;;;;;;;;;;5036577;28;20221;-65
2023/12/29 13:30:55;;;;;;;5.33;4.40;;;;;;;;;;5039331;28;20601;-65
2023/12/29 13:33:26;;;;;;;5.17;4.63;;;;;;;;;;5014637;28;21095;-66
2023/12/29 13:35:58;;;;;;;5.17;4.17;;;;;;;;;;5037637;28;20197;-65
2023/12/29 13:38:36;;;;;;;5.93;4.70;;;;;;;;;;5037897;28;20548;-66
2023/12/29 13:41:10;;;;;;;5.10;4.60;;;;;;;;;;5019442;28;20205;-65
2023/12/29 13:43:42;;;;;;;4.27;3.87;;;;;;;;;;5034410;28;20211;-65
2023/12/29 13:46:11;;;;;;;5.43;4.40;;;;;;;;;;5024808;28;20198;-64
2023/12/29 13:48:41;;;;;;;5.00;4.37;;;;;;;;;;5036560;28;20205;-63
2023/12/29 13:51:09;;;;;;;4.20;3.80;;;;;;;;;;5036620;28;20238;-64
2023/12/29 13:53:36;;;;;;;3.50;3.20;;;;;;;;;;5043774;28;20616;-65
2023/12/29 13:56:07;;;;;;;2.90;2.70;;;;;;;;;;5037300;28;20574;-66
2023/12/29 13:58:35;;;;;;;3.10;2.90;;;;;;;;;;5035891;28;20202;-65
2023/12/29 14:01:03;;;;;;;4.97;4.00;;;;;;;;;;5032438;28;20202;-64
2023/12/29 14:04:03;;;;;;;3.13;2.93;;;;;;;;;;5039690;28;20610;-66
2023/12/29 14:06:40;;;;;;;3.13;2.50;;;;;;;;;;4975472;28;20309;-65
2023/12/29 14:09:18;;;;;;;2.50;2.30;;;;;;;;;;5039936;28;20313;-64
2023/12/29 14:11:46;;;;;;;3.43;2.40;;;;;;;;;;5040672;28;20228;-68
2023/12/29 14:14:14;;;;;;;2.90;2.13;;;;;;;;;;5032290;28;20776;-64
2023/12/29 14:16:41;;;;;;;2.00;1.90;;;;;;;;;;5021471;28;20268;-67
2023/12/29 14:19:09;;;;;;;2.93;2.00;;;;;;;;;;5034466;28;20269;-68
2023/12/29 14:21:37;;;;;;;1.33;1.30;;;;;;;;;;5032296;28;20246;-66
2023/12/29 14:24:15;;;;;;;1.70;1.60;;;;;;;;;;5035733;28;20218;-64
2023/12/29 14:26:52;;;;;;;2.20;2.00;;;;;;;;;;5034346;28;20276;-66
2023/12/29 14:29:20;;;;;;;1.73;1.63;;;;;;;;;;5037789;28;20210;-65
2023/12/29 14:31:48;;;;;;;1.97;1.87;;;;;;;;;;5038839;28;20288;-65
2023/12/29 14:34:15;;;;;;;2.47;2.27;;;;;;;;;;5022026;28;20207;-65
2023/12/29 14:36:43;;;;;;;2.37;1.60;;;;;;;;;;5042694;28;20226;-64
2023/12/29 14:39:11;;;;;;;1.70;1.60;;;;;;;;;;5036800;28;20505;-65
2023/12/29 14:41:38;;;;;;;1.60;1.50;;;;;;;;;;5043399;28;20582;-64
2023/12/29 14:44:06;;;;;;;1.70;1.60;;;;;;;;;;5028413;28;20776;-66
2023/12/29 14:46:36;;;;;;;1.50;1.40;;;;;;;;;;5043064;28;20221;-64
2023/12/29 14:49:03;;;;;;;3.13;1.57;;;;;;;;;;5039342;28;20210;-64